Time;durP1;ratioP1;P1;durP2;ratioP2;P2;SDS_P1;SDS_P2;PMS_P1;PMS_P2;Temp;Humidity;BMP_temperature;BMP_pressure;BME280_temperature;BME280_humidity;BME280_pressure;Samples;Min_cycle;Max_cycle;Signal;HPM_P1;HPM_P2
2022/07/28 05:31:16;;;;;;;2.60;0.57;;;18.70;65.10;;;;;;5628884;24;20060;-68
2022/07/28 05:33:42;;;;;;;1.30;0.40;;;18.80;65.00;;;;;;4860957;29;20731;-68
2022/07/28 05:36:10;;;;;;;3.00;0.43;;;19.00;64.90;;;;;;4862537;29;20052;-68
2022/07/28 05:38:35;;;;;;;2.05;0.63;;;19.00;64.60;;;;;;4863294;29;20114;-70
2022/07/28 05:41:01;;;;;;;6.53;1.30;;;19.10;64.40;;;;;;4862235;29;20038;-71
2022/07/28 05:43:27;;;;;;;5.40;0.90;;;19.20;64.60;;;;;;4862189;29;20129;-69
2022/07/28 05:45:52;;;;;;;3.22;0.90;;;19.20;64.20;;;;;;4862619;29;20128;-70
2022/07/28 05:48:20;;;;;;;1.60;0.57;;;19.20;63.70;;;;;;4862289;29;20061;-70
2022/07/28 05:50:46;;;;;;;5.40;0.90;;;19.20;63.30;;;;;;4862466;29;20060;-69
2022/07/28 05:53:12;;;;;;;4.05;1.23;;;19.20;63.20;;;;;;4862314;29;20041;-69
2022/07/28 05:55:38;;;;;;;4.30;0.82;;;19.20;63.30;;;;;;4862738;29;20125;-69
2022/07/28 05:58:04;;;;;;;4.40;1.50;;;19.20;63.40;;;;;;4862746;29;20453;-69
2022/07/28 06:00:33;;;;;;;4.05;1.25;;;19.30;63.60;;;;;;4845708;29;20464;-71
2022/07/28 06:03:01;;;;;;;5.05;1.48;;;19.30;63.80;;;;;;4861771;29;20053;-70
2022/07/28 06:05:29;;;;;;;5.00;1.52;;;19.30;64.30;;;;;;4862616;29;20045;-70
2022/07/28 06:07:55;;;;;;;9.00;2.08;;;19.30;64.30;;;;;;4861121;29;20389;-71
2022/07/28 06:10:23;;;;;;;7.55;2.10;;;19.30;64.00;;;;;;4861927;29;20088;-71
2022/07/28 06:12:51;;;;;;;26.10;3.88;;;19.30;64.10;;;;;;4862132;29;20057;-71
2022/07/28 06:15:25;;;;;;;9.32;2.13;;;19.30;64.30;;;;;;4863087;29;20447;-71
2022/07/28 06:17:54;;;;;;;8.25;1.60;;;19.30;64.40;;;;;;4849660;29;20053;-71
2022/07/28 06:20:24;;;;;;;15.13;2.10;;;19.40;64.60;;;;;;4865523;29;20057;-76
2022/07/28 06:22:54;;;;;;;9.52;2.10;;;19.40;64.90;;;;;;4865046;29;20053;-71
2022/07/28 06:25:22;;;;;;;8.65;1.92;;;19.40;65.00;;;;;;4865219;29;20060;-71
2022/07/28 06:27:50;;;;;;;7.15;1.70;;;19.40;65.20;;;;;;4865414;29;20114;-71
2022/07/28 06:30:16;;;;;;;5.40;1.20;;;19.40;65.40;;;;;;4864837;29;20100;-71
2022/07/28 06:32:43;;;;;;;8.10;1.40;;;19.40;65.40;;;;;;4876199;29;20472;-71
2022/07/28 06:35:09;;;;;;;6.15;1.33;;;19.50;65.60;;;;;;4883579;29;20041;-70
2022/07/28 06:37:35;;;;;;;13.13;1.67;;;19.50;65.60;;;;;;4883659;29;20048;-71
2022/07/28 06:40:01;;;;;;;5.25;1.13;;;19.50;65.60;;;;;;4884084;29;20079;-70
2022/07/28 06:42:27;;;;;;;6.38;1.25;;;19.50;65.70;;;;;;4883204;29;20136;-71
2022/07/28 06:44:53;;;;;;;4.05;1.00;;;19.50;65.60;;;;;;4883659;29;20543;-71
2022/07/28 06:47:19;;;;;;;6.18;1.38;;;19.50;65.70;;;;;;4883854;29;20141;-70
2022/07/28 06:49:45;;;;;;;5.30;1.58;;;19.50;65.80;;;;;;4882994;29;20452;-71
2022/07/28 06:52:11;;;;;;;5.78;1.10;;;19.50;65.90;;;;;;4883130;29;20040;-71
2022/07/28 06:54:37;;;;;;;7.72;1.05;;;19.50;66.30;;;;;;4883771;29;20057;-71
2022/07/28 06:57:03;;;;;;;3.35;0.93;;;19.50;66.20;;;;;;4883310;29;20100;-71
2022/07/28 06:59:29;;;;;;;2.53;0.70;;;19.50;66.10;;;;;;4883481;29;20053;-70
2022/07/28 07:02:00;;;;;;;4.65;1.05;;;19.50;66.10;;;;;;4883457;29;20461;-72
2022/07/28 07:04:27;;;;;;;2.00;0.70;;;19.50;66.10;;;;;;4866155;29;20107;-73
2022/07/28 07:06:53;;;;;;;1.83;1.00;;;19.50;66.30;;;;;;4882816;29;20437;-73
2022/07/28 07:09:18;;;;;;;4.40;0.98;;;19.50;66.60;;;;;;4883062;29;20128;-71
2022/07/28 07:11:44;;;;;;;5.10;0.95;;;19.40;66.60;;;;;;4882996;29;20347;-73
2022/07/28 07:14:10;;;;;;;5.93;1.05;;;19.40;66.60;;;;;;4883144;29;20051;-73
2022/07/28 07:16:35;;;;;;;4.47;0.70;;;19.40;66.80;;;;;;4866908;29;20135;-72
2022/07/28 07:19:01;;;;;;;3.08;0.50;;;19.40;66.70;;;;;;4883006;29;20049;-72
2022/07/28 07:21:27;;;;;;;5.18;1.00;;;19.40;66.80;;;;;;4882826;29;20053;-73
2022/07/28 07:23:53;;;;;;;4.03;0.50;;;19.40;67.00;;;;;;4882751;29;20405;-72
2022/07/28 07:26:18;;;;;;;2.55;0.57;;;19.40;67.00;;;;;;4882759;29;20057;-72
2022/07/28 07:28:44;;;;;;;3.15;0.75;;;19.50;67.00;;;;;;4882459;29;20053;-73
2022/07/28 07:31:10;;;;;;;4.65;0.70;;;19.50;67.10;;;;;;4883089;29;20048;-74
2022/07/28 07:33:36;;;;;;;2.10;0.50;;;19.50;67.10;;;;;;4882546;29;20079;-73
2022/07/28 07:36:02;;;;;;;1.80;0.60;;;19.50;66.90;;;;;;4882384;29;20176;-72
2022/07/28 07:38:27;;;;;;;3.00;0.50;;;19.50;66.80;;;;;;4883220;29;20056;-73
2022/07/28 07:40:53;;;;;;;3.80;0.90;;;19.50;66.70;;;;;;4882821;29;20330;-72
2022/07/28 07:43:19;;;;;;;4.95;0.95;;;19.60;66.60;;;;;;4882905;29;20128;-73
2022/07/28 07:45:44;;;;;;;2.78;0.90;;;19.60;66.60;;;;;;4882708;29;20085;-73
2022/07/28 07:48:10;;;;;;;4.68;0.60;;;19.60;66.50;;;;;;4882708;29;20139;-72
2022/07/28 07:50:37;;;;;;;3.65;0.65;;;19.60;66.50;;;;;;4882417;29;20124;-73
2022/07/28 07:53:03;;;;;;;4.05;0.77;;;19.70;66.60;;;;;;4882315;29;20445;-72
2022/07/28 07:55:29;;;;;;;5.07;0.93;;;19.70;66.50;;;;;;4882481;29;20055;-73
2022/07/28 07:57:55;;;;;;;5.30;0.65;;;19.60;66.30;;;;;;4882659;29;20136;-72
2022/07/28 08:00:20;;;;;;;5.88;0.70;;;19.70;66.10;;;;;;4882552;29;20136;-73
2022/07/28 08:02:46;;;;;;;3.60;0.75;;;19.70;66.10;;;;;;4881993;29;20427;-74
2022/07/28 08:05:13;;;;;;;2.33;0.50;;;19.70;65.70;;;;;;4882087;29;20113;-74
2022/07/28 08:07:39;;;;;;;2.67;0.70;;;19.70;64.90;;;;;;4866109;29;20057;-73
2022/07/28 08:10:06;;;;;;;5.68;1.00;;;19.70;64.50;;;;;;4881926;29;20041;-72
2022/07/28 08:12:32;;;;;;;5.93;0.73;;;19.70;64.30;;;;;;4882006;29;20052;-72
2022/07/28 08:14:58;;;;;;;5.22;0.60;;;19.70;64.50;;;;;;4882933;29;20053;-72
2022/07/28 08:17:23;;;;;;;7.93;0.95;;;19.70;64.60;;;;;;4881662;29;20063;-71
2022/07/28 08:19:50;;;;;;;5.82;0.70;;;19.70;64.60;;;;;;4881601;29;20441;-71
2022/07/28 08:22:16;;;;;;;8.90;1.13;;;19.70;64.20;;;;;;4881736;29;20493;-71
2022/07/28 08:24:43;;;;;;;5.40;0.77;;;19.80;63.50;;;;;;4881791;29;20064;-71
2022/07/28 08:27:09;;;;;;;5.78;0.65;;;19.70;63.00;;;;;;4881853;29;20048;-70
2022/07/28 08:29:34;;;;;;;5.93;0.60;;;19.70;62.60;;;;;;4881927;29;20059;-71
2022/07/28 08:32:03;;;;;;;4.35;0.43;;;19.70;62.20;;;;;;4881692;29;20065;-72
2022/07/28 08:34:32;;;;;;;6.50;0.90;;;19.70;62.10;;;;;;4881295;29;20049;-75
2022/07/28 08:36:59;;;;;;;7.88;0.90;;;19.70;61.90;;;;;;4882020;29;20052;-74
2022/07/28 08:39:25;;;;;;;8.00;0.60;;;19.70;62.00;;;;;;4864989;29;20057;-76
2022/07/28 08:42:07;;;;;;;5.78;0.90;;;19.70;62.20;;;;;;4881805;29;20108;-76
2022/07/28 08:44:53;;;;;;;4.57;0.77;;;19.80;62.40;;;;;;4881788;29;20049;-75
2022/07/28 08:47:20;;;;;;;5.63;1.00;;;19.80;62.50;;;;;;4881675;29;20372;-70
2022/07/28 08:49:48;;;;;;;7.70;0.90;;;19.70;62.50;;;;;;4881065;29;20045;-70
2022/07/28 08:52:17;;;;;;;8.30;0.60;;;19.80;62.50;;;;;;4865410;29;20136;-71
2022/07/28 08:54:45;;;;;;;13.23;1.20;;;19.80;62.50;;;;;;4881688;29;20056;-71
2022/07/28 08:57:26;;;;;;;6.05;1.00;;;19.80;62.70;;;;;;4881195;29;20065;-70
2022/07/28 08:59:53;;;;;;;5.30;0.70;;;19.80;62.90;;;;;;4881382;29;20057;-71
2022/07/28 09:02:19;;;;;;;5.13;0.60;;;19.80;63.10;;;;;;4865635;29;20330;-71
2022/07/28 09:04:46;;;;;;;5.38;0.73;;;19.80;63.30;;;;;;4881777;29;20091;-71
2022/07/28 09:07:13;;;;;;;6.20;0.70;;;19.80;63.30;;;;;;4881679;29;20089;-71
2022/07/28 09:09:39;;;;;;;6.85;0.65;;;19.90;63.30;;;;;;4864151;29;20063;-71
2022/07/28 09:12:05;;;;;;;4.97;0.75;;;19.90;63.30;;;;;;4881437;29;20103;-70
2022/07/28 09:14:31;;;;;;;1.17;0.40;;;19.90;63.30;;;;;;4881354;29;20099;-71
2022/07/28 09:17:01;;;;;;;3.72;0.68;;;19.90;63.50;;;;;;4864714;29;20132;-71
2022/07/28 09:19:28;;;;;;;2.38;0.63;;;19.90;63.40;;;;;;4881967;29;20045;-70
2022/07/28 09:21:55;;;;;;;3.60;0.40;;;19.90;63.30;;;;;;4865002;29;20053;-71
2022/07/28 09:24:43;;;;;;;4.15;0.70;;;19.80;63.30;;;;;;4881322;29;20060;-73
2022/07/28 09:27:10;;;;;;;8.57;0.95;;;19.90;63.10;;;;;;4881621;29;20509;-73
2022/07/28 09:29:38;;;;;;;2.80;0.80;;;19.80;63.20;;;;;;4881556;29;20055;-72
2022/07/28 09:32:05;;;;;;;3.88;0.60;;;19.80;63.20;;;;;;4880109;29;20104;-73
2022/07/28 09:34:45;;;;;;;2.67;0.60;;;19.80;63.20;;;;;;4880342;29;20053;-72
2022/07/28 09:37:17;;;;;;;3.53;0.85;;;19.90;63.00;;;;;;4880832;29;20103;-72
2022/07/28 09:39:44;;;;;;;5.00;0.77;;;19.80;62.90;;;;;;4880613;29;20097;-73
2022/07/28 09:42:10;;;;;;;5.00;0.68;;;19.80;62.80;;;;;;4880541;29;20460;-73
2022/07/28 09:44:35;;;;;;;5.88;0.70;;;19.90;62.90;;;;;;4864396;29;20056;-72
2022/07/28 09:47:23;;;;;;;3.25;0.68;;;19.90;62.80;;;;;;4880522;29;20049;-73
2022/07/28 09:49:50;;;;;;;4.82;0.55;;;19.90;62.90;;;;;;4881366;29;20356;-72
2022/07/28 09:52:31;;;;;;;3.40;0.35;;;19.90;62.70;;;;;;4884333;29;20045;-73
2022/07/28 09:55:01;;;;;;;3.40;0.70;;;19.80;62.20;;;;;;4867772;29;20053;-72
2022/07/28 09:57:28;;;;;;;3.00;0.30;;;19.80;61.90;;;;;;4884741;29;20056;-74
2022/07/28 09:59:54;;;;;;;2.10;0.45;;;19.80;61.90;;;;;;4867801;29;20120;-73
2022/07/28 10:02:30;;;;;;;4.70;0.57;;;19.70;62.10;;;;;;4884556;29;20153;-72
2022/07/28 10:04:57;;;;;;;16.20;0.90;;;19.70;62.20;;;;;;4884213;29;20053;-73
2022/07/28 10:07:23;;;;;;;8.50;1.02;;;19.70;62.20;;;;;;4884413;29;20064;-73
2022/07/28 10:10:04;;;;;;;6.63;1.10;;;19.70;62.30;;;;;;4884567;29;20334;-70
2022/07/28 10:12:32;;;;;;;12.30;0.70;;;19.80;62.20;;;;;;4884968;29;20057;-70
2022/07/28 10:18:03;;;;;;;6.43;0.60;;;19.80;62.50;;;;;;4884185;29;20061;-72
2022/07/28 10:20:31;;;;;;;12.55;0.90;;;19.80;62.50;;;;;;4883414;29;20061;-72
2022/07/28 10:23:12;;;;;;;8.95;1.25;;;19.90;62.50;;;;;;4867595;29;20065;-71
2022/07/28 10:25:39;;;;;;;4.43;0.80;;;19.90;62.60;;;;;;4884103;29;20052;-71
2022/07/28 10:28:07;;;;;;;7.70;0.82;;;19.90;62.50;;;;;;4884208;29;20375;-71
2022/07/28 10:30:37;;;;;;;6.68;0.80;;;19.90;62.50;;;;;;4867170;29;20084;-71
2022/07/28 10:33:07;;;;;;;9.30;1.02;;;19.90;62.60;;;;;;4867019;29;20064;-71
2022/07/28 10:35:35;;;;;;;12.85;1.15;;;19.90;62.50;;;;;;4883714;29;20057;-71
2022/07/28 10:38:10;;;;;;;8.38;0.93;;;19.90;62.60;;;;;;4883979;29;20048;-71
2022/07/28 10:40:45;;;;;;;22.30;1.30;;;19.90;62.80;;;;;;4883447;29;20124;-72
2022/07/28 10:43:11;;;;;;;16.25;1.48;;;20.00;62.80;;;;;;4883687;29;20088;-73
2022/07/28 10:45:40;;;;;;;16.30;2.08;;;20.00;62.80;;;;;;4883491;29;20061;-72
2022/07/28 10:48:07;;;;;;;12.63;1.45;;;20.00;62.80;;;;;;4883538;29;20048;-74
2022/07/28 10:50:34;;;;;;;18.42;1.60;;;20.00;62.90;;;;;;4883077;29;20104;-71
2022/07/28 10:53:02;;;;;;;13.85;1.10;;;20.00;62.70;;;;;;4883680;29;20063;-71
2022/07/28 10:55:37;;;;;;;10.88;1.17;;;20.00;62.60;;;;;;4883526;29;20059;-71
2022/07/28 10:58:39;;;;;;;9.13;1.05;;;20.00;62.50;;;;;;4883772;29;20060;-71
2022/07/28 11:01:05;;;;;;;14.05;1.38;;;20.00;62.20;;;;;;4883214;29;20041;-73
2022/07/28 11:03:45;;;;;;;8.52;1.00;;;20.00;62.20;;;;;;4881978;29;20060;-71
2022/07/28 11:06:33;;;;;;;11.35;0.98;;;20.00;61.90;;;;;;4883636;29;20083;-73
2022/07/28 11:09:20;;;;;;;6.07;0.77;;;20.10;61.80;;;;;;4883068;29;20056;-72
2022/07/28 11:11:57;;;;;;;4.65;0.93;;;20.00;61.50;;;;;;4883077;29;20075;-71
2022/07/28 11:14:26;;;;;;;5.18;0.70;;;20.00;61.70;;;;;;4883461;29;20057;-71
2022/07/28 11:17:04;;;;;;;5.47;1.13;;;20.00;62.10;;;;;;4883864;29;20060;-71
2022/07/28 11:19:44;;;;;;;5.32;0.95;;;20.00;62.30;;;;;;4882905;29;20128;-76
2022/07/28 11:22:17;;;;;;;5.13;0.88;;;20.00;63.20;;;;;;4882177;29;20472;-69
2022/07/28 11:25:01;;;;;;;3.17;0.60;;;20.10;62.60;;;;;;4882948;29;20468;-71
2022/07/28 11:27:39;;;;;;;5.50;0.60;;;20.00;62.40;;;;;;4882644;29;20057;-73
2022/07/28 11:30:08;;;;;;;4.18;0.35;;;20.10;62.60;;;;;;4882847;29;20067;-74
2022/07/28 11:32:49;;;;;;;3.35;0.50;;;20.00;62.60;;;;;;4873530;29;20112;-72
2022/07/28 11:35:19;;;;;;;10.75;0.90;;;20.10;62.60;;;;;;4863996;29;20400;-71
2022/07/28 11:38:06;;;;;;;3.38;0.60;;;20.10;62.60;;;;;;4864245;29;20049;-71
2022/07/28 11:40:45;;;;;;;2.40;0.38;;;20.10;62.20;;;;;;4864132;29;20058;-72
2022/07/28 11:43:20;;;;;;;7.60;1.20;;;20.10;61.90;;;;;;4864526;29;20053;-71
2022/07/28 11:46:13;;;;;;;6.20;0.40;;;20.10;61.90;;;;;;4864274;29;20056;-72
2022/07/28 11:48:40;;;;;;;2.25;0.30;;;20.10;61.80;;;;;;4863861;29;20109;-71
2022/07/28 11:51:08;;;;;;;4.65;0.50;;;20.10;61.40;;;;;;4848266;29;20481;-72
2022/07/28 11:53:51;;;;;;;2.20;0.50;;;20.10;61.10;;;;;;4858033;29;20049;-72
2022/07/28 11:56:34;;;;;;;3.53;0.43;;;20.10;61.10;;;;;;4864109;29;20152;-72
2022/07/28 11:59:05;;;;;;;5.40;0.60;;;20.10;60.90;;;;;;4863554;29;20207;-72
2022/07/28 12:01:34;;;;;;;3.80;0.75;;;20.20;61.10;;;;;;4862807;29;20045;-72
2022/07/28 12:04:07;;;;;;;2.33;0.38;;;20.10;61.20;;;;;;4863997;29;20355;-72
2022/07/28 12:06:37;;;;;;;4.97;0.40;;;20.10;61.20;;;;;;4863873;29;20056;-72
2022/07/28 12:09:07;;;;;;;3.15;0.43;;;20.20;61.40;;;;;;4863827;29;20089;-72
2022/07/28 12:11:39;;;;;;;2.92;0.43;;;20.10;61.30;;;;;;4863892;29;20132;-72
2022/07/28 12:14:10;;;;;;;2.77;0.50;;;20.20;61.30;;;;;;4863282;29;20049;-71
2022/07/28 12:16:41;;;;;;;3.53;0.47;;;20.20;61.30;;;;;;4863444;29;20061;-72
2022/07/28 12:19:08;;;;;;;1.02;0.43;;;20.10;61.30;;;;;;4863823;29;20068;-78
2022/07/28 12:21:34;;;;;;;3.80;0.55;;;20.20;62.00;;;;;;4863271;29;20052;-76
2022/07/28 12:24:00;;;;;;;6.65;1.05;;;20.20;61.50;;;;;;4863176;29;20060;-76
2022/07/28 12:26:33;;;;;;;2.15;0.30;;;20.20;61.60;;;;;;4863740;29;20136;-80
2022/07/28 12:28:59;;;;;;;3.90;0.70;;;20.20;61.80;;;;;;4832471;29;20072;-77
2022/07/28 12:31:28;;;;;;;6.97;0.60;;;20.20;62.00;;;;;;4864003;29;20084;-76
2022/07/28 12:34:05;;;;;;;3.28;0.52;;;20.10;62.10;;;;;;4879827;29;20473;-76
2022/07/28 12:36:32;;;;;;;4.65;0.43;;;20.20;62.30;;;;;;4881386;29;20476;-77
2022/07/28 12:39:00;;;;;;;4.22;0.63;;;20.20;62.00;;;;;;4872640;29;20045;-72
2022/07/28 12:41:39;;;;;;;4.07;1.00;;;20.20;61.80;;;;;;4862734;29;20512;-75
2022/07/28 12:44:05;;;;;;;5.18;0.70;;;20.20;61.70;;;;;;4863043;29;20049;-75
2022/07/28 12:46:31;;;;;;;9.55;0.75;;;20.20;61.80;;;;;;4862448;29;20052;-74
2022/07/28 12:48:58;;;;;;;11.75;0.77;;;20.20;61.80;;;;;;4862570;29;20053;-72
2022/07/28 12:51:31;;;;;;;4.43;0.70;;;20.30;61.60;;;;;;4877845;29;20060;-72
2022/07/28 12:53:57;;;;;;;5.25;0.80;;;20.20;61.30;;;;;;4863146;29;20064;-73
2022/07/28 12:56:23;;;;;;;4.22;0.57;;;20.20;61.70;;;;;;4863266;29;20053;-73
2022/07/28 12:59:09;;;;;;;8.95;1.25;;;20.20;61.90;;;;;;4881575;29;20048;-71
2022/07/28 13:01:52;;;;;;;5.72;0.55;;;20.30;62.30;;;;;;4881809;29;20093;-72
2022/07/28 13:04:38;;;;;;;6.50;0.63;;;20.20;62.50;;;;;;4881273;29;20084;-72
2022/07/28 13:07:11;;;;;;;4.75;0.73;;;20.20;62.50;;;;;;4881652;29;20380;-72
2022/07/28 13:09:44;;;;;;;3.25;0.52;;;20.20;62.10;;;;;;4881587;29;20057;-72
2022/07/28 13:12:23;;;;;;;5.95;0.77;;;20.30;61.90;;;;;;4881189;29;20129;-74
2022/07/28 13:14:55;;;;;;;4.28;0.65;;;20.30;62.30;;;;;;4881471;29;20045;-73
2022/07/28 13:17:25;;;;;;;4.63;0.50;;;20.30;62.70;;;;;;4879903;29;20068;-73
2022/07/28 13:20:13;;;;;;;1.85;0.60;;;20.30;62.80;;;;;;4881493;29;20112;-73
2022/07/28 13:22:39;;;;;;;3.90;0.73;;;20.30;62.80;;;;;;4881682;29;20057;-71
2022/07/28 13:25:06;;;;;;;3.03;0.60;;;20.30;62.80;;;;;;4881365;29;20049;-73
2022/07/28 13:27:33;;;;;;;11.75;0.85;;;20.30;62.50;;;;;;4885188;29;20434;-75
2022/07/28 13:30:00;;;;;;;4.65;0.63;;;20.30;62.50;;;;;;4885403;29;20049;-75
2022/07/28 13:32:26;;;;;;;7.93;0.85;;;20.30;62.50;;;;;;4885199;29;20400;-75
2022/07/28 13:34:51;;;;;;;3.90;0.60;;;20.30;62.30;;;;;;4872633;29;20053;-78
2022/07/28 13:37:17;;;;;;;6.25;0.65;;;20.30;61.80;;;;;;4866059;29;20137;-74
2022/07/28 13:39:43;;;;;;;7.10;1.00;;;20.30;61.60;;;;;;4866662;29;20049;-72
2022/07/28 13:42:09;;;;;;;5.10;0.50;;;20.30;61.40;;;;;;4866382;29;20054;-73
2022/07/28 13:44:36;;;;;;;4.88;0.50;;;20.30;61.10;;;;;;4866280;29;20050;-74
2022/07/28 13:47:04;;;;;;;3.40;0.50;;;20.30;61.10;;;;;;4877444;29;20068;-75
2022/07/28 13:49:31;;;;;;;5.03;0.47;;;20.30;61.30;;;;;;4884335;29;20472;-77
2022/07/28 13:51:58;;;;;;;6.45;0.70;;;20.30;61.10;;;;;;4868872;29;20100;-77
2022/07/28 13:54:24;;;;;;;3.55;0.60;;;20.30;61.00;;;;;;4868811;29;20453;-76
2022/07/28 13:56:50;;;;;;;1.63;0.57;;;20.30;61.10;;;;;;4884914;29;20049;-76
2022/07/28 13:59:16;;;;;;;3.38;0.80;;;20.40;61.30;;;;;;4877122;29;20524;-76
2022/07/28 14:01:42;;;;;;;2.72;0.40;;;20.40;61.60;;;;;;4878281;29;20045;-79
2022/07/28 14:04:08;;;;;;;4.43;0.57;;;20.40;61.60;;;;;;4865860;29;20049;-74
2022/07/28 14:06:34;;;;;;;5.18;0.82;;;20.40;61.70;;;;;;4866405;29;20049;-75
2022/07/28 14:09:01;;;;;;;3.95;0.60;;;20.40;61.90;;;;;;4849498;29;20457;-75
2022/07/28 14:11:27;;;;;;;4.65;0.50;;;20.40;61.90;;;;;;4865779;29;20057;-75
2022/07/28 14:13:53;;;;;;;3.63;0.80;;;20.40;61.90;;;;;;4865771;29;20053;-75
2022/07/28 14:16:20;;;;;;;1.85;0.57;;;20.40;61.90;;;;;;4849438;29;20049;-75
2022/07/28 14:18:46;;;;;;;2.45;0.40;;;20.40;61.70;;;;;;4866200;29;20470;-75
2022/07/28 14:21:12;;;;;;;3.05;0.75;;;20.40;61.70;;;;;;4879101;29;20128;-74
2022/07/28 14:23:38;;;;;;;5.82;0.45;;;20.40;61.60;;;;;;4874499;29;20057;-73
2022/07/28 14:26:04;;;;;;;6.50;0.50;;;20.50;61.70;;;;;;4865388;29;20118;-79
2022/07/28 14:28:30;;;;;;;8.55;0.60;;;20.50;61.70;;;;;;4850165;29;20053;-74
2022/07/28 14:30:55;;;;;;;6.70;0.93;;;20.50;61.90;;;;;;4883543;29;20075;-76
2022/07/28 14:33:21;;;;;;;6.53;0.73;;;20.50;62.20;;;;;;4866433;29;20162;-74
2022/07/28 14:35:47;;;;;;;1.25;0.20;;;20.60;61.40;;;;;;4883777;29;20064;-74
2022/07/28 14:38:12;;;;;;;1.50;0.52;;;20.60;59.60;;;;;;4883662;29;20101;-73
2022/07/28 14:40:40;;;;;;;4.25;0.60;;;20.60;58.90;;;;;;4868566;29;20109;-75
2022/07/28 14:43:07;;;;;;;1.13;0.30;;;20.70;58.80;;;;;;4881495;29;20056;-75
2022/07/28 14:45:33;;;;;;;6.00;0.50;;;20.70;57.60;;;;;;4883346;29;20104;-74
2022/07/28 14:47:59;;;;;;;2.40;0.63;;;20.60;59.30;;;;;;4884102;29;20045;-73
2022/07/28 14:50:25;;;;;;;3.05;0.35;;;20.70;57.90;;;;;;4883153;29;20051;-72
2022/07/28 14:52:51;;;;;;;1.60;0.30;;;20.60;58.20;;;;;;4883726;29;20057;-73
2022/07/28 14:55:17;;;;;;;4.85;0.50;;;20.60;58.40;;;;;;4883689;29;20136;-76
2022/07/28 14:57:43;;;;;;;2.70;0.70;;;20.60;59.20;;;;;;4867875;29;20056;-73
2022/07/28 15:00:11;;;;;;;2.60;0.60;;;20.60;60.60;;;;;;4875363;29;20089;-75
2022/07/28 15:02:37;;;;;;;2.25;0.40;;;20.60;61.40;;;;;;4864592;29;20111;-73
2022/07/28 15:05:03;;;;;;;0.98;0.40;;;20.60;61.80;;;;;;4865258;29;20486;-74
2022/07/28 15:07:29;;;;;;;3.38;0.57;;;20.60;61.30;;;;;;4865108;29;20045;-75
2022/07/28 15:09:55;;;;;;;3.28;0.50;;;20.70;61.80;;;;;;4864957;29;20433;-74
2022/07/28 15:12:21;;;;;;;4.72;1.20;;;20.70;61.20;;;;;;4865095;29;20049;-72
2022/07/28 15:14:47;;;;;;;4.10;0.70;;;20.70;61.30;;;;;;4848594;29;20087;-75
2022/07/28 15:17:12;;;;;;;1.40;0.20;;;20.70;61.30;;;;;;4865145;29;20361;-73
2022/07/28 15:19:38;;;;;;;3.47;0.70;;;20.70;60.90;;;;;;4874507;29;20049;-75
2022/07/28 15:22:05;;;;;;;1.92;0.40;;;20.80;59.50;;;;;;4883222;29;20139;-74
2022/07/28 15:24:32;;;;;;;2.13;0.43;;;20.80;57.60;;;;;;4866620;29;20125;-74
2022/07/28 15:27:01;;;;;;;3.42;0.30;;;20.80;58.50;;;;;;4882863;29;20145;-77
2022/07/28 15:29:27;;;;;;;4.10;0.70;;;20.80;59.60;;;;;;4883004;29;20049;-75
2022/07/28 15:31:54;;;;;;;1.95;0.30;;;20.80;60.20;;;;;;4882314;29;20048;-76
2022/07/28 15:34:20;;;;;;;4.55;0.52;;;20.80;60.10;;;;;;4882762;29;20063;-75
2022/07/28 15:36:46;;;;;;;5.20;0.70;;;20.80;60.00;;;;;;4882920;29;20056;-75
2022/07/28 15:39:15;;;;;;;3.38;0.50;;;20.80;60.80;;;;;;4877615;29;20042;-75
2022/07/28 15:41:44;;;;;;;1.70;0.47;;;20.80;61.00;;;;;;4872291;29;20513;-75
2022/07/28 15:44:11;;;;;;;4.35;0.93;;;20.80;60.80;;;;;;4882562;29;20085;-76
2022/07/28 15:46:38;;;;;;;5.57;0.45;;;20.80;60.90;;;;;;4882633;29;20048;-76
2022/07/28 15:49:06;;;;;;;5.55;0.70;;;20.80;61.40;;;;;;4882357;29;20071;-75
2022/07/28 15:51:34;;;;;;;2.63;0.50;;;20.80;61.50;;;;;;4882032;29;20109;-76
2022/07/28 15:54:00;;;;;;;4.93;0.50;;;20.90;62.30;;;;;;4869734;29;20449;-75
2022/07/28 15:56:33;;;;;;;2.50;0.43;;;20.90;62.00;;;;;;4864161;29;20151;-76
2022/07/28 15:59:01;;;;;;;3.25;0.32;;;20.90;61.50;;;;;;4864034;29;20076;-76
2022/07/28 16:01:28;;;;;;;5.65;0.93;;;20.90;61.10;;;;;;4863865;29;20053;-75
2022/07/28 16:03:55;;;;;;;13.20;0.93;;;20.90;61.60;;;;;;4881998;29;20052;-75
2022/07/28 16:06:24;;;;;;;4.90;0.65;;;20.90;61.80;;;;;;4882337;29;20128;-75
2022/07/28 16:08:50;;;;;;;9.15;0.70;;;20.90;61.90;;;;;;4882314;29;20445;-75
2022/07/28 16:11:16;;;;;;;3.65;0.40;;;20.90;61.90;;;;;;4850214;29;20045;-76
2022/07/28 16:13:42;;;;;;;4.90;1.35;;;20.90;61.60;;;;;;4882209;29;20045;-75
2022/07/28 16:16:10;;;;;;;5.40;0.60;;;20.90;61.50;;;;;;4882047;29;20044;-75
2022/07/28 16:18:38;;;;;;;5.80;0.80;;;21.00;61.60;;;;;;4882244;29;20146;-76
2022/07/28 16:21:05;;;;;;;4.50;0.60;;;21.00;61.50;;;;;;4865983;29;20110;-73
2022/07/28 16:23:32;;;;;;;3.28;0.60;;;21.00;61.20;;;;;;4867936;29;20124;-73
2022/07/28 16:25:58;;;;;;;11.85;1.73;;;21.00;61.30;;;;;;4863368;29;20128;-73
2022/07/28 16:28:23;;;;;;;4.07;0.70;;;21.00;61.40;;;;;;4847133;29;20110;-73
2022/07/28 16:30:49;;;;;;;7.15;0.82;;;21.00;61.50;;;;;;4862964;29;20136;-72
2022/07/28 16:33:16;;;;;;;7.93;0.82;;;21.00;61.20;;;;;;4873118;29;20155;-72
2022/07/28 16:35:41;;;;;;;7.65;0.77;;;21.00;61.10;;;;;;4881530;29;20105;-73
2022/07/28 16:38:07;;;;;;;4.85;0.50;;;21.00;61.00;;;;;;4881981;29;20041;-72
2022/07/28 16:40:33;;;;;;;4.32;0.60;;;21.00;60.90;;;;;;4881639;29;20049;-75
2022/07/28 16:43:02;;;;;;;5.28;0.55;;;21.00;60.90;;;;;;4881996;29;20045;-74
2022/07/28 16:45:35;;;;;;;5.75;0.82;;;21.00;60.80;;;;;;4865610;29;20432;-73
2022/07/28 16:48:01;;;;;;;5.00;0.50;;;21.00;61.00;;;;;;4881787;29;20140;-75
2022/07/28 16:50:28;;;;;;;4.20;0.40;;;21.00;60.70;;;;;;4881603;29;20784;-76
2022/07/28 16:52:54;;;;;;;6.40;0.50;;;21.10;60.70;;;;;;4880737;29;20068;-74
2022/07/28 16:55:22;;;;;;;1.85;0.30;;;21.10;60.60;;;;;;4881496;29;20045;-74
2022/07/28 16:57:48;;;;;;;3.83;0.55;;;21.10;60.70;;;;;;4881374;29;20465;-72
2022/07/28 17:00:14;;;;;;;4.47;0.40;;;21.10;60.60;;;;;;4881603;29;20060;-73
2022/07/28 17:02:41;;;;;;;7.10;0.47;;;21.10;60.60;;;;;;4880663;29;20061;-73
2022/07/28 17:05:08;;;;;;;7.20;0.55;;;21.10;60.60;;;;;;4881505;29;20087;-73
2022/07/28 17:07:36;;;;;;;3.15;0.50;;;21.20;60.60;;;;;;4881846;29;20053;-73
2022/07/28 17:10:02;;;;;;;1.70;0.40;;;21.10;60.30;;;;;;4864992;29;20499;-75
2022/07/28 17:12:28;;;;;;;4.03;0.30;;;21.10;60.10;;;;;;4881595;29;20045;-73
2022/07/28 17:14:54;;;;;;;1.27;0.22;;;21.10;60.10;;;;;;4880762;29;20487;-73
2022/07/28 17:17:20;;;;;;;2.30;0.30;;;21.10;60.10;;;;;;4865643;29;20064;-73
2022/07/28 17:19:46;;;;;;;2.85;0.40;;;21.10;60.10;;;;;;4881237;29;20056;-73
2022/07/28 17:22:13;;;;;;;3.13;0.30;;;21.20;59.80;;;;;;4881202;29;20135;-73
2022/07/28 17:24:39;;;;;;;3.05;0.60;;;21.20;59.40;;;;;;4881243;29;20449;-73
2022/07/28 17:27:05;;;;;;;3.78;0.68;;;21.10;58.00;;;;;;4881083;29;20052;-73
2022/07/28 17:29:30;;;;;;;2.60;0.28;;;21.00;57.50;;;;;;4880705;29;20053;-73
2022/07/28 17:31:56;;;;;;;1.38;0.50;;;21.00;57.90;;;;;;4881262;29;20057;-74
2022/07/28 17:34:22;;;;;;;2.95;0.77;;;21.00;58.50;;;;;;4881107;29;20097;-73
2022/07/28 17:36:49;;;;;;;1.13;0.40;;;21.00;57.70;;;;;;4880504;29;20053;-73
2022/07/28 17:39:15;;;;;;;3.13;0.90;;;21.00;57.60;;;;;;4881399;29;20064;-73
2022/07/28 17:41:41;;;;;;;1.95;0.28;;;20.90;57.90;;;;;;4880636;29;20082;-71
2022/07/28 17:44:07;;;;;;;3.20;0.40;;;21.00;58.20;;;;;;4864989;29;20135;-72
2022/07/28 17:46:35;;;;;;;4.10;0.35;;;20.90;57.90;;;;;;4881246;29;20052;-73
2022/07/28 17:49:02;;;;;;;3.15;0.45;;;20.90;58.00;;;;;;4881311;29;20127;-72
2022/07/28 17:51:27;;;;;;;5.68;0.50;;;20.90;58.10;;;;;;4880914;29;20068;-72
2022/07/28 17:53:53;;;;;;;14.02;1.25;;;20.90;58.30;;;;;;4880972;29;20457;-73
2022/07/28 20:54:34;;;;;;;1.92;0.50;;;19.90;58.90;;;;;;5439847;24;20061;-74
2022/07/28 20:56:59;;;;;;;1.83;0.52;;;19.80;59.10;;;;;;4844175;29;20050;-76
2022/07/28 20:59:25;;;;;;;4.57;0.63;;;19.80;59.60;;;;;;4829071;29;20465;-73
2022/07/28 21:01:54;;;;;;;2.20;0.47;;;19.80;59.70;;;;;;4828507;29;20446;-77
2022/07/28 21:04:21;;;;;;;5.13;0.60;;;19.80;59.70;;;;;;4844802;29;20145;-77
2022/07/28 21:06:47;;;;;;;3.55;0.50;;;19.80;60.00;;;;;;4851656;29;20049;-77
2022/07/28 21:09:13;;;;;;;3.58;0.75;;;19.80;60.10;;;;;;4861919;29;20041;-75
2022/07/28 21:11:39;;;;;;;3.80;0.63;;;19.80;60.10;;;;;;4845192;29;20453;-77
2022/07/28 21:14:04;;;;;;;1.88;0.40;;;19.80;60.30;;;;;;4844514;29;20053;-76
2022/07/28 21:16:30;;;;;;;1.35;0.40;;;19.80;60.50;;;;;;4844311;29;20373;-75
2022/07/28 21:18:56;;;;;;;2.88;0.40;;;19.80;60.70;;;;;;4844224;29;20042;-75
2022/07/28 21:21:22;;;;;;;1.02;0.40;;;19.80;60.90;;;;;;4844306;29;20342;-75
2022/07/28 21:23:49;;;;;;;4.10;0.70;;;19.80;61.00;;;;;;4843408;29;20054;-74